sensor_id;sensor_type;location;lat;lon;timestamp;pressure;altitude;pressure_sealevel;temperature;humidity
56182;BME280;51963;46.052;14.544;2023-10-13T00:00:38;98652.25;;;12.73;100.00
56182;BME280;51963;46.052;14.544;2023-10-13T00:03:08;98646.41;;;12.85;100.00
56182;BME280;51963;46.052;14.544;2023-10-13T00:05:41;98645.56;;;12.77;100.00
56182;BME280;51963;46.052;14.544;2023-10-13T00:08:08;98634.72;;;12.72;100.00
56182;BME280;51963;46.052;14.544;2023-10-13T00:10:35;98630.56;;;12.63;100.00
56182;BME280;51963;46.052;14.544;2023-10-13T00:13:01;98636.97;;;12.75;100.00
56182;BME280;51963;46.052;14.544;2023-10-13T00:15:55;98628.94;;;12.62;100.00
56182;BME280;51963;46.052;14.544;2023-10-13T00:18:29;98637.50;;;12.64;100.00
56182;BME280;51963;46.052;14.544;2023-10-13T00:21:01;98633.00;;;12.65;100.00
56182;BME280;51963;46.052;14.544;2023-10-13T00:23:40;98624.34;;;12.49;100.00
56182;BME280;51963;46.052;14.544;2023-10-13T00:26:25;98632.22;;;12.71;100.00
56182;BME280;51963;46.052;14.544;2023-10-13T00:29:00;98630.81;;;12.68;100.00
56182;BME280;51963;46.052;14.544;2023-10-13T00:31:46;98635.63;;;12.93;100.00
56182;BME280;51963;46.052;14.544;2023-10-13T00:34:14;98635.13;;;12.76;100.00
56182;BME280;51963;46.052;14.544;2023-10-13T00:37:06;98634.56;;;12.81;100.00
56182;BME280;51963;46.052;14.544;2023-10-13T00:39:46;98631.03;;;12.73;100.00
56182;BME280;51963;46.052;14.544;2023-10-13T00:42:15;98615.91;;;12.67;100.00
56182;BME280;51963;46.052;14.544;2023-10-13T00:44:45;98623.09;;;12.73;100.00
56182;BME280;51963;46.052;14.544;2023-10-13T00:47:18;98641.66;;;12.73;100.00
56182;BME280;51963;46.052;14.544;2023-10-13T00:50:04;98642.81;;;12.64;100.00
56182;BME280;51963;46.052;14.544;2023-10-13T00:52:33;98630.34;;;12.58;100.00
56182;BME280;51963;46.052;14.544;2023-10-13T00:55:00;98622.06;;;12.39;100.00
56182;BME280;51963;46.052;14.544;2023-10-13T00:57:27;98632.03;;;12.37;100.00
56182;BME280;51963;46.052;14.544;2023-10-13T00:59:54;98631.19;;;12.37;100.00
56182;BME280;51963;46.052;14.544;2023-10-13T01:02:20;98627.97;;;12.41;100.00
56182;BME280;51963;46.052;14.544;2023-10-13T01:05:05;98622.69;;;12.41;100.00
56182;BME280;51963;46.052;14.544;2023-10-13T01:07:36;98616.91;;;12.31;100.00
56182;BME280;51963;46.052;14.544;2023-10-13T01:10:10;98613.41;;;12.30;100.00
56182;BME280;51963;46.052;14.544;2023-10-13T01:12:39;98621.56;;;12.29;100.00
56182;BME280;51963;46.052;14.544;2023-10-13T01:15:13;98622.69;;;12.76;100.00
56182;BME280;51963;46.052;14.544;2023-10-13T01:17:43;98630.09;;;12.53;100.00
56182;BME280;51963;46.052;14.544;2023-10-13T01:20:16;98618.25;;;12.55;100.00
56182;BME280;51963;46.052;14.544;2023-10-13T01:22:52;98607.63;;;12.49;100.00
56182;BME280;51963;46.052;14.544;2023-10-13T01:25:25;98612.84;;;12.35;100.00
56182;BME280;51963;46.052;14.544;2023-10-13T01:27:52;98607.53;;;12.35;100.00
56182;BME280;51963;46.052;14.544;2023-10-13T01:30:19;98608.94;;;12.31;100.00
56182;BME280;51963;46.052;14.544;2023-10-13T01:32:52;98617.66;;;12.25;100.00
56182;BME280;51963;46.052;14.544;2023-10-13T01:35:19;98615.88;;;12.32;100.00
56182;BME280;51963;46.052;14.544;2023-10-13T01:37:51;98613.84;;;12.34;100.00
56182;BME280;51963;46.052;14.544;2023-10-13T01:40:17;98613.63;;;12.29;100.00
56182;BME280;51963;46.052;14.544;2023-10-13T01:42:46;98595.59;;;12.17;100.00
56182;BME280;51963;46.052;14.544;2023-10-13T01:45:12;98608.06;;;12.24;100.00
56182;BME280;51963;46.052;14.544;2023-10-13T01:47:41;98609.84;;;12.16;100.00
56182;BME280;51963;46.052;14.544;2023-10-13T01:50:10;98602.44;;;12.05;100.00
56182;BME280;51963;46.052;14.544;2023-10-13T01:52:44;98613.69;;;12.14;100.00
56182;BME280;51963;46.052;14.544;2023-10-13T01:55:11;98615.84;;;12.03;100.00
56182;BME280;51963;46.052;14.544;2023-10-13T01:57:37;98613.31;;;11.95;100.00
56182;BME280;51963;46.052;14.544;2023-10-13T02:00:05;98619.97;;;12.06;100.00
56182;BME280;51963;46.052;14.544;2023-10-13T02:02:38;98622.22;;;12.09;100.00
56182;BME280;51963;46.052;14.544;2023-10-13T02:05:13;98611.63;;;11.87;100.00
56182;BME280;51963;46.052;14.544;2023-10-13T02:07:41;98623.09;;;11.95;100.00
56182;BME280;51963;46.052;14.544;2023-10-13T02:10:13;98614.13;;;11.96;100.00
56182;BME280;51963;46.052;14.544;2023-10-13T02:12:40;98609.84;;;11.95;100.00
56182;BME280;51963;46.052;14.544;2023-10-13T02:15:12;98614.13;;;11.96;100.00
56182;BME280;51963;46.052;14.544;2023-10-13T02:17:47;98613.75;;;11.99;100.00
56182;BME280;51963;46.052;14.544;2023-10-13T02:20:18;98604.31;;;11.89;100.00
56182;BME280;51963;46.052;14.544;2023-10-13T02:22:46;98606.06;;;11.82;100.00
56182;BME280;51963;46.052;14.544;2023-10-13T02:25:21;98596.09;;;11.84;100.00
56182;BME280;51963;46.052;14.544;2023-10-13T02:28:05;98601.53;;;11.76;100.00
56182;BME280;51963;46.052;14.544;2023-10-13T02:30:41;98601.31;;;11.78;100.00
56182;BME280;51963;46.052;14.544;2023-10-13T02:33:14;98573.97;;;11.70;100.00
56182;BME280;51963;46.052;14.544;2023-10-13T02:35:40;98595.66;;;11.81;100.00
56182;BME280;51963;46.052;14.544;2023-10-13T02:38:16;98594.38;;;11.98;100.00
56182;BME280;51963;46.052;14.544;2023-10-13T02:40:51;98605.19;;;11.97;100.00
56182;BME280;51963;46.052;14.544;2023-10-13T02:43:20;98596.41;;;11.96;100.00
56182;BME280;51963;46.052;14.544;2023-10-13T02:45:54;98587.91;;;12.01;100.00
56182;BME280;51963;46.052;14.544;2023-10-13T02:48:26;98594.97;;;11.94;100.00
56182;BME280;51963;46.052;14.544;2023-10-13T02:50:59;98581.09;;;11.92;100.00
56182;BME280;51963;46.052;14.544;2023-10-13T02:53:32;98587.00;;;11.94;100.00
56182;BME280;51963;46.052;14.544;2023-10-13T02:55:58;98588.94;;;12.00;100.00
56182;BME280;51963;46.052;14.544;2023-10-13T02:58:30;98590.59;;;12.08;100.00
56182;BME280;51963;46.052;14.544;2023-10-13T03:01:07;98580.47;;;12.11;100.00
56182;BME280;51963;46.052;14.544;2023-10-13T03:03:53;98589.91;;;11.99;100.00
56182;BME280;51963;46.052;14.544;2023-10-13T03:06:25;98594.22;;;12.00;100.00
56182;BME280;51963;46.052;14.544;2023-10-13T03:09:00;98597.13;;;12.05;100.00
56182;BME280;51963;46.052;14.544;2023-10-13T03:11:49;98603.28;;;12.12;100.00
56182;BME280;51963;46.052;14.544;2023-10-13T03:14:19;98607.00;;;12.18;100.00
56182;BME280;51963;46.052;14.544;2023-10-13T03:16:53;98598.25;;;12.17;100.00
56182;BME280;51963;46.052;14.544;2023-10-13T03:19:20;98600.81;;;12.11;100.00
56182;BME280;51963;46.052;14.544;2023-10-13T03:21:46;98589.47;;;11.95;100.00
56182;BME280;51963;46.052;14.544;2023-10-13T03:24:22;98594.47;;;12.05;100.00
56182;BME280;51963;46.052;14.544;2023-10-13T03:27:00;98597.50;;;12.02;100.00
56182;BME280;51963;46.052;14.544;2023-10-13T03:29:38;98582.97;;;11.98;100.00
56182;BME280;51963;46.052;14.544;2023-10-13T03:32:10;98610.63;;;12.10;100.00
56182;BME280;51963;46.052;14.544;2023-10-13T03:34:39;98606.97;;;12.11;100.00
56182;BME280;51963;46.052;14.544;2023-10-13T03:37:12;98600.50;;;12.21;100.00
56182;BME280;51963;46.052;14.544;2023-10-13T03:39:45;98593.88;;;12.10;100.00
56182;BME280;51963;46.052;14.544;2023-10-13T03:42:11;98603.16;;;12.21;100.00
56182;BME280;51963;46.052;14.544;2023-10-13T03:44:49;98600.06;;;12.17;100.00
56182;BME280;51963;46.052;14.544;2023-10-13T03:47:23;98605.81;;;12.21;100.00
56182;BME280;51963;46.052;14.544;2023-10-13T03:50:00;98602.91;;;12.15;100.00
56182;BME280;51963;46.052;14.544;2023-10-13T03:52:41;98572.50;;;11.89;100.00
56182;BME280;51963;46.052;14.544;2023-10-13T03:55:07;98599.44;;;11.93;100.00
56182;BME280;51963;46.052;14.544;2023-10-13T03:57:41;98600.34;;;12.00;100.00
56182;BME280;51963;46.052;14.544;2023-10-13T04:00:08;98594.47;;;11.83;100.00
56182;BME280;51963;46.052;14.544;2023-10-13T04:02:37;98596.53;;;11.88;100.00
56182;BME280;51963;46.052;14.544;2023-10-13T04:05:04;98590.44;;;11.87;100.00
56182;BME280;51963;46.052;14.544;2023-10-13T04:07:54;98598.63;;;11.93;100.00
56182;BME280;51963;46.052;14.544;2023-10-13T04:10:38;98603.44;;;12.04;100.00
56182;BME280;51963;46.052;14.544;2023-10-13T04:13:20;98606.47;;;12.01;100.00
56182;BME280;51963;46.052;14.544;2023-10-13T04:16:06;98600.44;;;12.14;100.00
56182;BME280;51963;46.052;14.544;2023-10-13T04:18:51;98580.31;;;11.98;100.00
56182;BME280;51963;46.052;14.544;2023-10-13T04:21:20;98606.97;;;12.11;100.00
56182;BME280;51963;46.052;14.544;2023-10-13T04:24:11;98601.91;;;12.16;100.00
56182;BME280;51963;46.052;14.544;2023-10-13T04:26:48;98587.09;;;12.00;100.00
56182;BME280;51963;46.052;14.544;2023-10-13T04:29:32;98601.44;;;11.91;100.00
56182;BME280;51963;46.052;14.544;2023-10-13T04:32:17;98611.88;;;11.93;100.00
56182;BME280;51963;46.052;14.544;2023-10-13T04:34:59;98614.91;;;11.89;100.00
56182;BME280;51963;46.052;14.544;2023-10-13T04:37:38;98604.22;;;11.83;100.00
56182;BME280;51963;46.052;14.544;2023-10-13T04:40:26;98616.91;;;11.87;100.00
56182;BME280;51963;46.052;14.544;2023-10-13T04:42:54;98607.47;;;11.78;100.00
56182;BME280;51963;46.052;14.544;2023-10-13T04:45:25;98612.88;;;11.92;100.00
56182;BME280;51963;46.052;14.544;2023-10-13T04:47:57;98615.91;;;11.88;100.00
56182;BME280;51963;46.052;14.544;2023-10-13T04:50:38;98601.91;;;11.73;100.00
56182;BME280;51963;46.052;14.544;2023-10-13T04:53:18;98615.84;;;11.82;100.00
56182;BME280;51963;46.052;14.544;2023-10-13T04:56:13;98599.94;;;11.60;100.00
56182;BME280;51963;46.052;14.544;2023-10-13T04:58:57;98595.41;;;11.54;100.00
56182;BME280;51963;46.052;14.544;2023-10-13T05:01:44;98584.25;;;11.37;100.00
56182;BME280;51963;46.052;14.544;2023-10-13T05:04:15;98609.84;;;11.51;100.00
56182;BME280;51963;46.052;14.544;2023-10-13T05:06:47;98604.59;;;11.58;100.00
56182;BME280;51963;46.052;14.544;2023-10-13T05:09:31;98611.63;;;11.66;100.00
56182;BME280;51963;46.052;14.544;2023-10-13T05:12:17;98627.81;;;11.78;100.00
56182;BME280;51963;46.052;14.544;2023-10-13T05:15:01;98635.47;;;11.66;100.00
56182;BME280;51963;46.052;14.544;2023-10-13T05:17:45;98639.25;;;11.78;100.00
56182;BME280;51963;46.052;14.544;2023-10-13T05:20:32;98634.38;;;11.82;100.00
56182;BME280;51963;46.052;14.544;2023-10-13T05:23:19;98626.38;;;11.75;100.00
56182;BME280;51963;46.052;14.544;2023-10-13T05:26:03;98625.16;;;11.78;100.00
56182;BME280;51963;46.052;14.544;2023-10-13T05:28:50;98633.63;;;11.66;100.00
56182;BME280;51963;46.052;14.544;2023-10-13T05:31:34;98638.66;;;11.61;100.00
56182;BME280;51963;46.052;14.544;2023-10-13T05:34:18;98644.97;;;11.60;100.00
56182;BME280;51963;46.052;14.544;2023-10-13T05:37:03;98650.47;;;11.58;100.00
56182;BME280;51963;46.052;14.544;2023-10-13T05:39:47;98654.38;;;11.63;100.00
56182;BME280;51963;46.052;14.544;2023-10-13T05:42:31;98654.16;;;11.64;100.00
56182;BME280;51963;46.052;14.544;2023-10-13T05:45:15;98653.38;;;11.64;100.00
56182;BME280;51963;46.052;14.544;2023-10-13T05:48:10;98662.56;;;11.68;100.00
56182;BME280;51963;46.052;14.544;2023-10-13T05:50:49;98654.16;;;11.64;100.00
56182;BME280;51963;46.052;14.544;2023-10-13T05:53:23;98656.19;;;11.62;100.00
56182;BME280;51963;46.052;14.544;2023-10-13T05:56:07;98641.88;;;11.56;100.00
56182;BME280;51963;46.052;14.544;2023-10-13T05:58:51;98663.97;;;11.64;100.00
56182;BME280;51963;46.052;14.544;2023-10-13T06:01:38;98671.78;;;11.72;100.00
56182;BME280;51963;46.052;14.544;2023-10-13T06:04:22;98673.44;;;11.73;100.00
56182;BME280;51963;46.052;14.544;2023-10-13T06:07:08;98669.44;;;11.84;100.00
56182;BME280;51963;46.052;14.544;2023-10-13T06:09:53;98675.97;;;11.81;100.00
56182;BME280;51963;46.052;14.544;2023-10-13T06:12:37;98675.97;;;11.81;100.00
56182;BME280;51963;46.052;14.544;2023-10-13T06:15:40;98669.94;;;11.94;100.00
56182;BME280;51963;46.052;14.544;2023-10-13T06:18:31;98679.69;;;12.09;100.00
56182;BME280;51963;46.052;14.544;2023-10-13T06:21:16;98678.69;;;12.10;100.00
56182;BME280;51963;46.052;14.544;2023-10-13T06:24:00;98642.66;;;11.94;100.00
56182;BME280;51963;46.052;14.544;2023-10-13T06:26:49;98664.13;;;12.21;100.00
56182;BME280;51963;46.052;14.544;2023-10-13T06:29:34;98665.66;;;12.08;100.00
56182;BME280;51963;46.052;14.544;2023-10-13T06:31:59;98674.97;;;12.26;100.00
56182;BME280;51963;46.052;14.544;2023-10-13T06:34:30;98689.72;;;12.35;100.00
56182;BME280;51963;46.052;14.544;2023-10-13T06:37:16;98698.81;;;12.26;100.00
56182;BME280;51963;46.052;14.544;2023-10-13T06:39:49;98698.44;;;12.29;100.00
56182;BME280;51963;46.052;14.544;2023-10-13T06:42:15;98700.91;;;12.30;100.00
56182;BME280;51963;46.052;14.544;2023-10-13T06:44:47;98702.56;;;12.60;100.00
56182;BME280;51963;46.052;14.544;2023-10-13T06:47:13;98707.59;;;12.76;100.00
56182;BME280;51963;46.052;14.544;2023-10-13T06:49:42;98721.19;;;12.95;100.00
56182;BME280;51963;46.052;14.544;2023-10-13T06:52:09;98727.34;;;13.02;100.00
56182;BME280;51963;46.052;14.544;2023-10-13T06:54:36;98735.25;;;12.96;100.00
56182;BME280;51963;46.052;14.544;2023-10-13T06:57:06;98722.13;;;12.87;100.00
56182;BME280;51963;46.052;14.544;2023-10-13T06:59:36;98730.38;;;13.28;100.00
56182;BME280;51963;46.052;14.544;2023-10-13T07:02:06;98732.34;;;13.47;100.00
56182;BME280;51963;46.052;14.544;2023-10-13T07:04:45;98734.66;;;13.71;100.00
56182;BME280;51963;46.052;14.544;2023-10-13T07:07:12;98738.72;;;13.67;100.00
56182;BME280;51963;46.052;14.544;2023-10-13T07:09:42;98727.75;;;13.83;100.00
56182;BME280;51963;46.052;14.544;2023-10-13T07:12:24;98726.97;;;14.03;100.00
56182;BME280;51963;46.052;14.544;2023-10-13T07:14:52;98737.44;;;14.04;100.00
56182;BME280;51963;46.052;14.544;2023-10-13T07:17:20;98743.13;;;13.94;100.00
56182;BME280;51963;46.052;14.544;2023-10-13T07:19:52;98729.38;;;13.84;100.00
56182;BME280;51963;46.052;14.544;2023-10-13T07:22:46;98736.47;;;13.57;100.00
56182;BME280;51963;46.052;14.544;2023-10-13T07:25:53;98718.97;;;13.83;100.00
56182;BME280;51963;46.052;14.544;2023-10-13T07:28:21;98727.31;;;13.73;100.00
56182;BME280;51963;46.052;14.544;2023-10-13T07:30:53;98731.25;;;13.84;100.00
56182;BME280;51963;46.052;14.544;2023-10-13T07:33:24;98735.38;;;14.06;100.00
56182;BME280;51963;46.052;14.544;2023-10-13T07:38:26;98730.94;;;14.88;100.00
56182;BME280;51963;46.052;14.544;2023-10-13T07:40:56;98736.03;;;15.16;100.00
56182;BME280;51963;46.052;14.544;2023-10-13T07:43:32;98732.84;;;15.46;100.00
56182;BME280;51963;46.052;14.544;2023-10-13T07:45:58;98712.59;;;15.84;100.00
56182;BME280;51963;46.052;14.544;2023-10-13T07:48:25;98741.75;;;16.24;100.00
56182;BME280;51963;46.052;14.544;2023-10-13T07:51:05;98750.59;;;16.50;100.00
56182;BME280;51963;46.052;14.544;2023-10-13T07:53:39;98733.13;;;16.98;100.00
56182;BME280;51963;46.052;14.544;2023-10-13T07:56:10;98730.03;;;17.20;100.00
56182;BME280;51963;46.052;14.544;2023-10-13T07:58:45;98743.38;;;17.76;100.00
56182;BME280;51963;46.052;14.544;2023-10-13T08:01:26;98739.84;;;17.94;100.00
56182;BME280;51963;46.052;14.544;2023-10-13T08:03:52;98747.28;;;18.11;100.00
56182;BME280;51963;46.052;14.544;2023-10-13T08:06:37;98740.66;;;18.56;100.00
56182;BME280;51963;46.052;14.544;2023-10-13T08:09:03;98746.72;;;18.63;100.00
56182;BME280;51963;46.052;14.544;2023-10-13T08:11:48;98734.13;;;18.75;100.00
56182;BME280;51963;46.052;14.544;2023-10-13T08:14:13;98739.03;;;18.79;100.00
56182;BME280;51963;46.052;14.544;2023-10-13T08:16:49;98733.31;;;18.75;100.00
56182;BME280;51963;46.052;14.544;2023-10-13T08:19:28;98726.53;;;19.32;100.00
56182;BME280;51963;46.052;14.544;2023-10-13T08:22:06;98722.84;;;19.09;100.00
56182;BME280;51963;46.052;14.544;2023-10-13T08:24:45;98732.16;;;19.18;100.00
56182;BME280;51963;46.052;14.544;2023-10-13T08:27:14;98729.13;;;19.27;100.00
56182;BME280;51963;46.052;14.544;2023-10-13T08:29:49;98736.25;;;19.62;100.00
56182;BME280;51963;46.052;14.544;2023-10-13T11:03:59;98644.72;;;33.44;38.88
56182;BME280;51963;46.052;14.544;2023-10-13T11:06:26;98641.78;;;33.70;37.91
56182;BME280;51963;46.052;14.544;2023-10-13T11:09:03;98647.25;;;34.59;36.74
56182;BME280;51963;46.052;14.544;2023-10-13T11:11:30;98623.00;;;34.15;37.14
56182;BME280;51963;46.052;14.544;2023-10-13T11:14:01;98638.28;;;33.18;36.56
56182;BME280;51963;46.052;14.544;2023-10-13T11:16:46;98633.50;;;32.85;36.51
56182;BME280;51963;46.052;14.544;2023-10-13T11:19:17;98628.94;;;33.19;36.46
56182;BME280;51963;46.052;14.544;2023-10-13T11:21:46;98622.53;;;33.15;36.35
56182;BME280;51963;46.052;14.544;2023-10-13T11:24:13;98612.50;;;31.50;38.62
56182;BME280;51963;46.052;14.544;2023-10-13T11:26:39;98620.38;;;31.60;39.24
56182;BME280;51963;46.052;14.544;2023-10-13T11:29:33;98611.66;;;32.20;38.70
56182;BME280;51963;46.052;14.544;2023-10-13T11:31:59;98602.53;;;31.54;38.63
56182;BME280;51963;46.052;14.544;2023-10-13T11:34:25;98622.34;;;32.52;37.45
56182;BME280;51963;46.052;14.544;2023-10-13T11:36:51;98606.88;;;32.95;36.30
56182;BME280;51963;46.052;14.544;2023-10-13T11:39:17;98608.59;;;32.99;36.17
56182;BME280;51963;46.052;14.544;2023-10-13T11:41:47;98606.00;;;32.73;37.15
56182;BME280;51963;46.052;14.544;2023-10-13T11:44:20;98596.06;;;32.12;36.78
56182;BME280;51963;46.052;14.544;2023-10-13T11:46:45;98598.06;;;31.85;38.01
56182;BME280;51963;46.052;14.544;2023-10-13T11:49:14;98595.88;;;32.65;37.13
56182;BME280;51963;46.052;14.544;2023-10-13T11:51:47;98597.16;;;33.48;35.49
56182;BME280;51963;46.052;14.544;2023-10-13T11:54:14;98609.03;;;32.71;35.58
56182;BME280;51963;46.052;14.544;2023-10-13T11:56:41;98584.34;;;31.94;36.77
56182;BME280;51963;46.052;14.544;2023-10-13T11:59:07;98584.78;;;32.22;36.95
56182;BME280;51963;46.052;14.544;2023-10-13T12:01:45;98570.06;;;32.74;35.54
56182;BME280;51963;46.052;14.544;2023-10-13T12:04:30;98558.59;;;32.81;35.73
56182;BME280;51963;46.052;14.544;2023-10-13T12:07:14;98569.88;;;33.52;34.96
56182;BME280;51963;46.052;14.544;2023-10-13T12:09:44;98564.94;;;33.79;34.49
56182;BME280;51963;46.052;14.544;2023-10-13T12:12:22;98577.59;;;33.71;34.63
56182;BME280;51963;46.052;14.544;2023-10-13T12:14:48;98581.47;;;33.70;35.08
56182;BME280;51963;46.052;14.544;2023-10-13T12:20:10;98562.22;;;32.64;36.22
56182;BME280;51963;46.052;14.544;2023-10-13T12:22:37;98553.84;;;33.20;35.38
56182;BME280;51963;46.052;14.544;2023-10-13T12:25:11;98546.25;;;31.88;37.35
56182;BME280;51963;46.052;14.544;2023-10-13T12:27:55;98545.31;;;31.84;37.46
56182;BME280;51963;46.052;14.544;2023-10-13T12:30:25;98553.78;;;30.95;39.04
56182;BME280;51963;46.052;14.544;2023-10-13T12:33:09;98555.47;;;32.31;36.97
56182;BME280;51963;46.052;14.544;2023-10-13T12:35:43;98553.78;;;32.00;36.99
56182;BME280;51963;46.052;14.544;2023-10-13T12:38:28;98549.03;;;32.66;36.09
56182;BME280;51963;46.052;14.544;2023-10-13T12:41:20;98549.03;;;32.66;36.09
56182;BME280;51963;46.052;14.544;2023-10-13T12:44:05;98553.50;;;33.01;35.73
56182;BME280;51963;46.052;14.544;2023-10-13T12:46:49;98551.91;;;32.70;35.75
56182;BME280;51963;46.052;14.544;2023-10-13T12:49:34;98558.38;;;32.17;36.30
56182;BME280;51963;46.052;14.544;2023-10-13T12:52:06;98556.88;;;31.64;37.23
56182;BME280;51963;46.052;14.544;2023-10-13T12:54:51;98541.56;;;32.45;36.58
56182;BME280;51963;46.052;14.544;2023-10-13T12:57:27;98540.31;;;31.69;37.40
56182;BME280;51963;46.052;14.544;2023-10-13T12:59:53;98532.25;;;31.72;37.82
56182;BME280;51963;46.052;14.544;2023-10-13T13:02:24;98558.97;;;31.93;37.73
56182;BME280;51963;46.052;14.544;2023-10-13T13:04:54;98546.56;;;32.43;36.38
56182;BME280;51963;46.052;14.544;2023-10-13T13:07:23;98538.63;;;32.81;35.82
56182;BME280;51963;46.052;14.544;2023-10-13T13:09:55;98541.69;;;33.09;36.05
56182;BME280;51963;46.052;14.544;2023-10-13T13:12:24;98536.78;;;31.86;37.16
56182;BME280;51963;46.052;14.544;2023-10-13T13:14:50;98538.06;;;31.80;37.32
56182;BME280;51963;46.052;14.544;2023-10-13T13:17:23;98528.78;;;31.45;38.47
56182;BME280;51963;46.052;14.544;2023-10-13T13:19:49;98536.69;;;32.21;36.84
56182;BME280;51963;46.052;14.544;2023-10-13T13:22:14;98524.16;;;32.80;35.61
56182;BME280;51963;46.052;14.544;2023-10-13T13:24:45;98535.00;;;32.98;35.75
56182;BME280;51963;46.052;14.544;2023-10-13T13:27:11;98525.84;;;30.98;37.74
56182;BME280;51963;46.052;14.544;2023-10-13T13:29:42;98528.03;;;30.61;38.28
56182;BME280;51963;46.052;14.544;2023-10-13T13:32:08;98521.38;;;31.02;38.51
56182;BME280;51963;46.052;14.544;2023-10-13T13:34:45;98519.41;;;30.76;38.64
56182;BME280;51963;46.052;14.544;2023-10-13T13:37:20;98530.41;;;31.20;37.70
56182;BME280;51963;46.052;14.544;2023-10-13T13:39:45;98534.75;;;31.21;38.09
56182;BME280;51963;46.052;14.544;2023-10-13T13:42:11;98512.91;;;30.54;39.06
56182;BME280;51963;46.052;14.544;2023-10-13T13:44:46;98507.09;;;29.98;39.98
56182;BME280;51963;46.052;14.544;2023-10-13T13:47:13;98500.47;;;30.71;38.94
56182;BME280;51963;46.052;14.544;2023-10-13T13:49:39;98515.63;;;30.46;39.25
56182;BME280;51963;46.052;14.544;2023-10-13T13:52:08;98499.19;;;31.12;38.59
56182;BME280;51963;46.052;14.544;2023-10-13T13:54:35;98478.94;;;30.61;39.01
56182;BME280;51963;46.052;14.544;2023-10-13T13:57:01;98507.88;;;30.88;39.50
56182;BME280;51963;46.052;14.544;2023-10-13T13:59:26;98503.69;;;30.91;38.37
56182;BME280;51963;46.052;14.544;2023-10-13T14:02:00;98490.69;;;30.79;38.93
56182;BME280;51963;46.052;14.544;2023-10-13T14:04:28;98504.84;;;30.32;40.06
56182;BME280;51963;46.052;14.544;2023-10-13T14:06:56;98505.56;;;29.83;40.67
56182;BME280;51963;46.052;14.544;2023-10-13T14:09:22;98493.41;;;28.98;42.59
56182;BME280;51963;46.052;14.544;2023-10-13T14:11:59;98486.97;;;28.94;42.90
56182;BME280;51963;46.052;14.544;2023-10-13T14:14:43;98483.22;;;28.39;44.00
56182;BME280;51963;46.052;14.544;2023-10-13T14:17:24;98490.47;;;27.69;45.36
56182;BME280;51963;46.052;14.544;2023-10-13T14:20:01;98482.69;;;27.62;45.32
56182;BME280;51963;46.052;14.544;2023-10-13T14:22:34;98488.97;;;27.76;46.10
56182;BME280;51963;46.052;14.544;2023-10-13T14:25:03;98464.25;;;27.45;46.23
56182;BME280;51963;46.052;14.544;2023-10-13T14:27:35;98493.25;;;27.30;47.07
56182;BME280;51963;46.052;14.544;2023-10-13T14:30:04;98478.88;;;27.49;46.42
56182;BME280;51963;46.052;14.544;2023-10-13T14:32:30;98458.53;;;26.70;48.09
56182;BME280;51963;46.052;14.544;2023-10-13T14:34:56;98479.13;;;26.52;49.10
56182;BME280;51963;46.052;14.544;2023-10-13T14:37:22;98478.09;;;26.91;48.81
56182;BME280;51963;46.052;14.544;2023-10-13T14:39:58;98475.22;;;27.01;48.31
56182;BME280;51963;46.052;14.544;2023-10-13T14:42:25;98455.06;;;26.88;49.36
56182;BME280;51963;46.052;14.544;2023-10-13T14:44:52;98458.38;;;27.04;48.67
56182;BME280;51963;46.052;14.544;2023-10-13T14:47:24;98468.94;;;27.39;48.07
56182;BME280;51963;46.052;14.544;2023-10-13T14:49:54;98444.78;;;27.57;47.70
56182;BME280;51963;46.052;14.544;2023-10-13T14:52:21;98463.03;;;27.18;48.88
56182;BME280;51963;46.052;14.544;2023-10-13T14:54:47;98478.03;;;26.53;50.23
56182;BME280;51963;46.052;14.544;2023-10-13T14:57:15;98464.53;;;26.91;49.77
56182;BME280;51963;46.052;14.544;2023-10-13T14:59:41;98464.56;;;26.42;50.70
56182;BME280;51963;46.052;14.544;2023-10-13T15:02:07;98465.34;;;26.24;51.15
56182;BME280;51963;46.052;14.544;2023-10-13T15:04:34;98474.53;;;25.69;52.92
56182;BME280;51963;46.052;14.544;2023-10-13T15:07:00;98466.06;;;25.11;55.06
56182;BME280;51963;46.052;14.544;2023-10-13T15:09:28;98482.38;;;25.01;56.53
56182;BME280;51963;46.052;14.544;2023-10-13T15:11:54;98468.72;;;24.66;58.52
56182;BME280;51963;46.052;14.544;2023-10-13T15:14:20;98456.81;;;24.67;59.43
56182;BME280;51963;46.052;14.544;2023-10-13T15:16:46;98477.38;;;24.73;59.77
56182;BME280;51963;46.052;14.544;2023-10-13T15:19:12;98476.69;;;24.42;61.55
56182;BME280;51963;46.052;14.544;2023-10-13T15:21:38;98468.41;;;24.12;63.54
56182;BME280;51963;46.052;14.544;2023-10-13T15:24:06;98467.31;;;24.19;64.55
56182;BME280;51963;46.052;14.544;2023-10-13T15:26:51;98467.34;;;23.98;65.81
56182;BME280;51963;46.052;14.544;2023-10-13T15:29:19;98461.97;;;23.67;67.52
56182;BME280;51963;46.052;14.544;2023-10-13T15:31:51;98465.78;;;23.55;69.29
56182;BME280;51963;46.052;14.544;2023-10-13T15:34:26;98455.00;;;23.29;71.86
56182;BME280;51963;46.052;14.544;2023-10-13T15:36:53;98453.81;;;22.74;74.27
56182;BME280;51963;46.052;14.544;2023-10-13T15:39:20;98448.25;;;22.32;78.45
56182;BME280;51963;46.052;14.544;2023-10-13T15:41:52;98474.56;;;22.15;81.05
56182;BME280;51963;46.052;14.544;2023-10-13T15:44:19;98472.50;;;21.89;84.85
56182;BME280;51963;46.052;14.544;2023-10-13T15:46:46;98467.34;;;21.77;85.24
56182;BME280;51963;46.052;14.544;2023-10-13T15:49:17;98464.31;;;21.36;89.23
56182;BME280;51963;46.052;14.544;2023-10-13T15:51:43;98470.19;;;21.33;90.28
56182;BME280;51963;46.052;14.544;2023-10-13T15:54:09;98470.22;;;21.05;93.40